Time;durP1;ratioP1;P1;durP2;ratioP2;P2;SDS_P1;SDS_P2;PMS_P1;PMS_P2;Temp;Humidity;BMP_temperature;BMP_pressure;BME280_temperature;BME280_humidity;BME280_pressure;Samples;Min_cycle;Max_cycle;Signal;HPM_P1;HPM_P2
2023/10/02 00:05:08;;;;;;;6.62;3.12;;;;;;;15.95;57.96;99984.09;4444002;32;33974;-88
2023/10/02 00:07:37;;;;;;;10.13;3.97;;;;;;;15.88;58.13;99986.69;4439204;32;34862;-87
2023/10/02 00:10:05;;;;;;;8.63;3.53;;;;;;;15.72;59.10;99983.09;4443456;32;33232;-89
2023/10/02 00:12:34;;;;;;;10.85;3.62;;;;;;;15.75;59.02;99988.34;4443402;32;33905;-87
2023/10/02 00:15:13;;;;;;;7.68;3.50;;;;;;;15.69;59.08;99989.22;4449923;32;33297;-87
2023/10/02 00:17:44;;;;;;;10.68;3.40;;;;;;;15.78;58.57;99985.75;4445699;32;32152;-88
2023/10/02 00:20:21;;;;;;;5.93;2.80;;;;;;;15.79;58.69;99992.72;4448264;32;33197;-88
2023/10/02 00:22:51;;;;;;;7.70;3.65;;;;;;;15.83;58.50;99973.56;4456988;32;33875;-89
2023/10/02 00:25:22;;;;;;;9.27;3.05;;;;;;;15.82;58.71;99974.44;4447910;32;34972;-89
2023/10/02 00:27:51;;;;;;;10.75;3.60;;;;;;;15.78;58.81;99980.53;4439213;32;33587;-88
2023/10/02 00:30:30;;;;;;;9.02;3.55;;;;;;;15.79;58.89;99977.91;4440991;32;33738;-88
2023/10/02 00:32:58;;;;;;;9.70;3.08;;;;;;;15.74;59.08;99979.63;4456472;32;34621;-88
2023/10/02 00:35:27;;;;;;;6.97;2.85;;;;;;;15.88;58.67;99977.09;4444640;32;36191;-89
2023/10/02 00:37:57;;;;;;;8.95;3.10;;;;;;;15.94;58.72;99971.88;4460528;32;33817;-88
2023/10/02 00:40:28;;;;;;;11.73;3.53;;;;;;;15.98;58.21;99973.62;4444266;32;32644;-88
2023/10/02 00:42:59;;;;;;;8.18;3.50;;;;;;;15.98;57.97;99971.00;4436080;32;34618;-89
2023/10/02 00:45:42;;;;;;;8.40;3.20;;;;;;;15.90;58.01;99967.50;4452095;32;33957;-89
2023/10/02 00:48:25;;;;;;;6.47;2.92;;;;;;;16.00;57.79;99964.06;4444079;32;33846;-88
2023/10/02 00:50:58;;;;;;;7.50;3.42;;;;;;;15.99;57.70;99969.31;4437492;32;33501;-88
2023/10/02 00:53:42;;;;;;;8.00;3.75;;;;;;;15.95;57.91;99967.53;4431042;32;33381;-88
2023/10/02 00:56:23;;;;;;;8.52;3.15;;;;;;;15.83;58.30;99968.34;4424459;32;32300;-88
2023/10/02 00:59:00;;;;;;;8.73;3.60;;;;;;;15.89;58.04;99970.13;4450083;32;33957;-88
2023/10/02 01:01:31;;;;;;;9.15;3.50;;;;;;;15.85;58.26;99966.62;4450381;32;34268;-89
2023/10/02 01:04:24;;;;;;;8.88;3.42;;;;;;;15.84;58.39;99967.50;4445013;32;34729;-88
2023/10/02 01:07:04;;;;;;;7.25;2.92;;;;;;;15.81;58.38;99965.72;4436066;32;34075;-87
2023/10/02 01:09:34;;;;;;;7.80;3.08;;;;;;;15.74;58.66;99961.34;4438924;32;34558;-88
2023/10/02 01:12:02;;;;;;;8.18;3.20;;;;;;;15.66;59.10;99960.44;4441561;32;34245;-88
2023/10/02 01:14:43;;;;;;;8.15;3.58;;;;;;;15.74;58.82;99969.19;4436453;32;33825;-89
2023/10/02 01:17:11;;;;;;;9.48;3.33;;;;;;;15.65;59.12;99970.84;4435928;32;33951;-88
2023/10/02 01:19:54;;;;;;;8.30;2.97;;;;;;;15.73;58.84;99974.41;4449731;32;33886;-89
2023/10/02 01:22:31;;;;;;;8.30;3.22;;;;;;;15.70;58.96;99972.66;4424719;32;33151;-89
2023/10/02 01:25:13;;;;;;;8.18;3.00;;;;;;;15.78;58.59;99981.41;4436978;32;34015;-89
2023/10/02 01:27:50;;;;;;;6.57;3.00;;;;;;;15.84;58.21;99980.56;4437223;32;34441;-89
2023/10/02 01:30:23;;;;;;;7.80;2.75;;;;;;;15.78;58.16;99977.91;4450998;32;34673;-89
2023/10/02 01:35:46;;;;;;;7.65;3.20;;;;;;;15.76;58.28;99974.44;4450898;32;33125;-87
2023/10/02 01:38:18;;;;;;;8.27;2.85;;;;;;;15.79;57.73;99975.28;4446664;32;32730;-89
2023/10/02 01:40:54;;;;;;;7.47;2.70;;;;;;;15.72;57.77;99980.50;4436196;32;34015;-89
2023/10/02 01:43:26;;;;;;;6.07;2.85;;;;;;;15.77;57.65;99979.66;4432255;32;33153;-88
2023/10/02 01:45:57;;;;;;;7.93;3.40;;;;;;;15.86;57.31;99976.19;4434097;32;33082;-89
2023/10/02 01:48:37;;;;;;;9.35;3.37;;;;;;;15.87;57.18;99980.56;4448686;32;33950;-90
2023/10/02 01:51:15;;;;;;;7.03;2.90;;;;;;;15.88;57.34;99987.56;4448564;32;34019;-89
2023/10/02 01:53:54;;;;;;;6.70;2.92;;;;;;;15.90;57.28;99977.97;4450536;32;33524;-89
2023/10/02 01:56:26;;;;;;;9.63;3.65;;;;;;;15.83;57.44;99986.63;4450363;32;33638;-88
2023/10/02 01:59:08;;;;;;;7.80;3.17;;;;;;;15.72;57.84;99972.63;4451059;32;33940;-89
2023/10/02 02:01:52;;;;;;;10.98;3.12;;;;;;;15.76;57.63;99977.91;4441133;32;34750;-87
2023/10/02 02:04:24;;;;;;;7.97;3.33;;;;;;;15.74;57.54;99971.78;4446958;32;33582;-87
2023/10/02 02:06:52;;;;;;;7.22;2.90;;;;;;;15.78;57.42;99977.91;4440859;32;33137;-88
2023/10/02 02:09:33;;;;;;;9.88;3.20;;;;;;;15.84;57.29;99983.19;4449919;32;34122;-89
2023/10/02 02:12:05;;;;;;;8.25;3.08;;;;;;;15.80;57.60;99979.69;4441956;32;34296;-89
2023/10/02 02:14:52;;;;;;;8.27;3.07;;;;;;;15.71;57.87;99973.53;4444925;32;33064;-88
2023/10/02 02:17:27;;;;;;;6.50;3.25;;;;;;;15.72;57.73;99975.25;4425760;32;34369;-87
2023/10/02 02:19:59;;;;;;;7.97;2.85;;;;;;;15.53;58.42;99975.16;4435083;32;34971;-89
2023/10/02 02:22:31;;;;;;;6.40;2.75;;;;;;;15.63;58.25;99972.56;4431481;32;32993;-86
2023/10/02 02:24:59;;;;;;;7.03;2.80;;;;;;;15.68;58.06;99981.34;4429240;32;34035;-88
2023/10/02 02:27:27;;;;;;;6.62;2.72;;;;;;;15.67;57.79;99977.00;4432312;32;33803;-88
2023/10/02 02:29:56;;;;;;;6.65;3.05;;;;;;;15.66;57.84;99985.69;4435762;32;33722;-87
2023/10/02 02:32:54;;;;;;;9.98;2.97;;;;;;;15.68;57.45;99983.94;4427178;32;33274;-89
2023/10/02 02:35:22;;;;;;;10.20;3.33;;;;;;;15.74;57.20;99984.00;4435808;32;32801;-88
2023/10/02 02:37:50;;;;;;;8.07;2.67;;;;;;;15.66;57.33;99993.53;4440968;32;33923;-88
2023/10/02 02:40:29;;;;;;;8.07;2.80;;;;;;;15.62;57.30;99990.00;4434967;32;33082;-89
2023/10/02 02:42:58;;;;;;;9.27;3.30;;;;;;;15.62;57.33;99994.37;4432819;32;33401;-88
2023/10/02 02:45:29;;;;;;;7.40;2.72;;;;;;;15.53;57.61;99995.16;4450687;32;33272;-89
2023/10/02 02:48:06;;;;;;;8.20;2.90;;;;;;;15.55;57.63;99988.22;4451652;32;33960;-87
2023/10/02 02:50:42;;;;;;;8.10;3.35;;;;;;;15.60;57.54;99985.63;4451772;32;33478;-88
2023/10/02 02:53:30;;;;;;;9.25;3.22;;;;;;;15.61;57.72;99992.59;4432703;32;34548;-88
2023/10/02 02:56:24;;;;;;;9.25;3.25;;;;;;;15.56;57.69;99992.56;4445756;32;32989;-89
2023/10/02 02:58:55;;;;;;;8.27;3.58;;;;;;;15.49;57.84;99994.31;4456423;32;33965;-89
2023/10/02 03:01:24;;;;;;;8.75;3.05;;;;;;;15.48;57.78;99999.50;4445262;32;33781;-88
2023/10/02 03:04:11;;;;;;;8.13;3.12;;;;;;;15.46;57.85;99999.50;4426232;32;32588;-88
2023/10/02 03:06:42;;;;;;;8.50;3.37;;;;;;;15.47;58.04;100002.97;4446192;32;33958;-87
2023/10/02 03:09:09;;;;;;;7.87;3.00;;;;;;;15.47;57.92;99998.63;4457591;32;34400;-87
2023/10/02 03:11:38;;;;;;;16.40;3.47;;;;;;;15.42;57.99;100004.66;4441122;32;34027;-88
2023/10/02 03:14:14;;;;;;;8.27;3.62;;;;;;;15.32;58.31;99996.78;4463263;32;34489;-89
2023/10/02 03:16:45;;;;;;;6.57;3.10;;;;;;;15.29;58.61;100006.34;4443599;32;32592;-89
2023/10/02 03:19:13;;;;;;;11.35;3.53;;;;;;;15.22;59.02;100004.53;4459075;32;33416;-88
2023/10/02 03:21:42;;;;;;;8.35;3.85;;;;;;;15.33;58.72;99995.03;4428045;32;34037;-89
2023/10/02 03:24:12;;;;;;;9.43;3.37;;;;;;;15.30;58.75;100000.25;4458330;32;33507;-88
2023/10/02 03:26:43;;;;;;;7.22;2.90;;;;;;;15.32;58.55;99996.78;4446843;32;32735;-90
2023/10/02 03:29:16;;;;;;;8.70;3.33;;;;;;;15.39;58.20;100008.16;4446222;32;33202;-89
2023/10/02 03:31:49;;;;;;;8.32;3.17;;;;;;;15.42;57.91;100009.91;4445277;32;34241;-88
2023/10/02 03:34:29;;;;;;;8.75;3.03;;;;;;;15.31;58.71;100010.72;4441078;32;33719;-88
2023/10/02 03:36:59;;;;;;;5.72;2.85;;;;;;;15.26;59.05;100020.25;4453121;32;33285;-89
2023/10/02 03:42:15;;;;;;;7.55;3.28;;;;;;;15.37;58.99;100016.84;4449741;32;34745;-89
2023/10/02 03:44:43;;;;;;;9.00;3.78;;;;;;;15.32;59.05;100009.84;4454241;32;32226;-89
2023/10/02 03:47:13;;;;;;;7.05;3.47;;;;;;;15.28;59.24;100015.06;4463857;32;33246;-88
2023/10/02 03:49:44;;;;;;;7.50;3.12;;;;;;;15.31;59.15;100013.34;4442552;32;35158;-89
2023/10/02 03:52:13;;;;;;;8.20;3.80;;;;;;;15.28;59.45;100015.91;4442937;32;34129;-88
2023/10/02 03:54:44;;;;;;;8.50;3.53;;;;;;;15.32;59.49;100022.03;4431246;32;33048;-88
2023/10/02 04:00:16;;;;;;;10.70;3.37;;;;;;;15.36;59.79;100015.09;4426393;32;33070;-88
2023/10/02 04:02:46;;;;;;;8.02;3.15;;;;;;;15.46;59.54;100019.53;4441965;32;33589;-89
2023/10/02 04:05:30;;;;;;;6.95;3.33;;;;;;;15.48;59.68;100021.28;4447931;32;32704;-89
2023/10/02 04:08:13;;;;;;;9.35;3.72;;;;;;;15.48;59.82;100023.87;4453005;32;33041;-89
2023/10/02 04:10:51;;;;;;;7.37;3.30;;;;;;;15.49;59.82;100023.03;4443984;32;34371;-88
2023/10/02 04:13:25;;;;;;;8.25;3.50;;;;;;;15.47;59.94;100023.87;4451269;32;33845;-88
2023/10/02 04:18:46;;;;;;;9.30;3.60;;;;;;;15.58;60.22;100017.88;4454100;32;33146;-89
2023/10/02 04:21:19;;;;;;;8.50;3.87;;;;;;;15.60;60.19;100017.00;4440255;32;33711;-88
2023/10/02 04:23:47;;;;;;;10.10;3.58;;;;;;;15.55;60.65;100015.22;4440965;32;34480;-87
2023/10/02 04:26:23;;;;;;;6.95;2.92;;;;;;;15.69;60.43;100017.97;4439415;32;34577;-89
2023/10/02 04:31:44;;;;;;;8.90;3.15;;;;;;;16.10;59.78;100024.25;4459769;32;34911;-86
2023/10/02 04:34:24;;;;;;;9.23;3.12;;;;;;;15.85;60.50;100024.16;4433152;32;33768;-89
2023/10/02 04:36:52;;;;;;;9.93;3.58;;;;;;;15.93;60.50;100029.41;4457877;32;33858;-89
2023/10/02 04:42:19;;;;;;;8.57;3.60;;;;;;;15.90;60.74;100032.88;4444982;32;34764;-88
2023/10/02 04:44:56;;;;;;;8.05;3.67;;;;;;;15.92;60.79;100031.16;4459499;32;34179;-89
2023/10/02 04:47:30;;;;;;;8.60;3.67;;;;;;;15.88;61.25;100028.53;4444714;32;33577;-87
2023/10/02 04:52:56;;;;;;;9.02;3.55;;;;;;;16.10;60.93;100029.47;4462099;32;33630;-88
2023/10/02 04:55:41;;;;;;;8.93;3.20;;;;;;;16.20;60.73;100037.37;4443172;32;33986;-90
2023/10/02 04:58:15;;;;;;;9.18;3.40;;;;;;;16.24;60.95;100038.25;4444602;32;33923;-86
2023/10/02 05:03:38;;;;;;;8.25;3.62;;;;;;;16.20;61.18;100052.19;4452440;32;33572;-89
2023/10/02 05:06:16;;;;;;;9.95;3.85;;;;;;;16.10;61.72;100050.41;4447921;32;33781;-90
2023/10/02 05:11:24;;;;;;;8.25;3.50;;;;;;;16.30;61.18;100067.94;4455912;32;33272;-90
2023/10/02 05:16:35;;;;;;;8.80;3.95;;;;;;;16.42;61.04;100076.72;4436861;32;34388;-91
2023/10/02 05:19:04;;;;;;;10.80;4.18;;;;;;;16.39;61.29;100069.72;4464337;32;34773;-88
2023/10/02 05:21:38;;;;;;;9.48;3.85;;;;;;;16.25;61.87;100071.41;4442303;32;34463;-87
2023/10/02 05:24:13;;;;;;;9.88;3.85;;;;;;;16.47;61.18;100068.00;4444531;32;33941;-87
2023/10/02 05:26:44;;;;;;;8.02;3.65;;;;;;;16.51;61.01;100069.75;4438766;32;33092;-90
2023/10/02 05:29:36;;;;;;;9.60;3.92;;;;;;;16.53;60.86;100080.25;4437643;32;34502;-88
2023/10/02 05:32:19;;;;;;;9.93;4.20;;;;;;;16.49;60.83;100081.97;4448970;32;34212;-90
2023/10/02 05:35:03;;;;;;;10.25;4.05;;;;;;;16.54;60.57;100075.00;4466267;32;33554;-90
2023/10/02 05:37:39;;;;;;;10.25;3.87;;;;;;;16.44;60.50;100083.72;4440530;32;34949;-89
2023/10/02 05:48:14;;;;;;;7.68;3.80;;;;;;;16.52;60.26;100089.84;4465839;32;34917;-88
2023/10/02 05:50:48;;;;;;;9.65;3.47;;;;;;;16.53;60.64;100102.06;4458025;32;33973;-90
2023/10/02 05:53:17;;;;;;;9.30;3.75;;;;;;;16.38;61.36;100096.75;4444070;32;33556;-90
2023/10/02 05:55:56;;;;;;;7.87;3.90;;;;;;;16.47;61.02;100098.53;4441702;32;33762;-91
2023/10/02 05:58:30;;;;;;;10.75;4.30;;;;;;;16.69;60.20;100091.63;4454731;32;33865;-90
2023/10/02 06:01:03;;;;;;;12.50;4.50;;;;;;;16.68;60.21;100101.22;4434939;32;33102;-90
2023/10/02 06:03:36;;;;;;;15.13;4.10;;;;;;;16.74;60.02;100100.38;4453425;32;33555;-91
2023/10/02 06:06:17;;;;;;;9.40;4.20;;;;;;;16.66;59.98;100096.84;4460608;32;33422;-91
2023/10/02 06:08:49;;;;;;;7.87;3.78;;;;;;;16.75;59.88;100096.94;4453501;32;34310;-86
2023/10/02 06:11:26;;;;;;;11.82;3.95;;;;;;;16.81;59.68;100102.16;4452885;32;34127;-88
2023/10/02 06:14:13;;;;;;;9.35;4.50;;;;;;;16.97;58.85;100109.19;4436461;32;34507;-88
2023/10/02 06:16:45;;;;;;;10.65;4.10;;;;;;;16.70;59.98;100112.56;4428334;32;32427;-88
2023/10/02 06:19:13;;;;;;;12.15;4.80;;;;;;;16.66;60.44;100112.56;4438602;32;34547;-88
2023/10/02 06:21:46;;;;;;;10.85;4.80;;;;;;;16.48;61.20;100129.97;4454457;32;33490;-88
2023/10/02 06:24:18;;;;;;;12.98;5.47;;;;;;;16.54;60.50;100127.34;4437697;32;34339;-88
2023/10/02 06:27:22;;;;;;;11.20;5.47;;;;;;;16.74;59.21;100134.44;4452173;32;33638;-88
2023/10/02 06:29:44;;;;;;;13.57;5.65;;;;;;;16.90;58.74;100131.00;4427884;32;34959;-88
2023/10/02 06:32:19;;;;;;;12.40;4.75;;;;;;;16.84;59.46;100140.59;4453929;32;33724;-87
2023/10/02 06:34:47;;;;;;;9.27;4.47;;;;;;;16.85;59.71;100137.97;4442284;32;34324;-88
2023/10/02 06:37:19;;;;;;;10.27;4.85;;;;;;;16.99;59.50;100131.00;4441703;32;33872;-88
2023/10/02 06:40:04;;;;;;;10.77;4.50;;;;;;;17.12;59.22;100129.31;4454922;32;33041;-88
2023/10/02 06:42:33;;;;;;;12.05;4.68;;;;;;;17.12;59.05;100126.69;4464838;32;34286;-86
2023/10/02 06:45:01;;;;;;;10.10;4.60;;;;;;;17.30;59.21;100133.69;4444493;32;32673;-88
2023/10/02 06:47:31;;;;;;;10.35;4.35;;;;;;;17.31;59.55;100127.56;4439784;32;32829;-88
2023/10/02 06:53:00;;;;;;;11.50;4.43;;;;;;;17.41;58.40;100125.81;4435507;32;34520;-90
2023/10/02 06:55:29;;;;;;;9.73;4.62;;;;;;;17.36;57.94;100125.84;4451012;32;33294;-88
2023/10/02 06:57:57;;;;;;;11.88;4.43;;;;;;;17.39;57.96;100124.97;4451912;32;34454;-87
2023/10/02 07:00:36;;;;;;;12.23;4.00;;;;;;;17.45;58.25;100124.94;4464122;32;34019;-87
2023/10/02 07:03:06;;;;;;;12.52;4.78;;;;;;;17.75;57.71;100131.97;4455793;32;33750;-88
2023/10/02 07:05:33;;;;;;;10.65;4.28;;;;;;;17.85;57.44;100130.22;4460881;32;33542;-87
2023/10/02 07:08:18;;;;;;;13.62;4.93;;;;;;;18.02;56.34;100127.56;4445165;32;33802;-87
2023/10/02 07:10:48;;;;;;;10.40;4.35;;;;;;;18.05;56.36;100131.03;4453183;32;33039;-88
2023/10/02 07:13:20;;;;;;;10.50;4.05;;;;;;;18.14;56.12;100125.75;4448708;32;33565;-88
2023/10/02 07:15:59;;;;;;;10.07;4.22;;;;;;;18.21;56.49;100135.37;4451659;32;33101;-88
2023/10/02 07:18:42;;;;;;;11.48;4.65;;;;;;;18.16;56.13;100136.28;4439011;32;34597;-88
2023/10/02 07:21:09;;;;;;;10.88;4.32;;;;;;;18.20;56.11;100140.62;4439194;32;34030;-88
2023/10/02 07:23:37;;;;;;;8.38;3.70;;;;;;;18.04;55.45;100141.56;4452674;32;33499;-87
2023/10/02 07:26:13;;;;;;;11.65;4.15;;;;;;;18.03;56.27;100135.41;4437575;32;33330;-88
2023/10/02 07:28:50;;;;;;;12.52;4.45;;;;;;;18.07;56.21;100136.28;4451587;32;34511;-89
2023/10/02 07:31:19;;;;;;;13.57;4.05;;;;;;;18.27;55.68;100138.87;4438663;32;34036;-88
2023/10/02 07:33:47;;;;;;;8.57;3.85;;;;;;;18.26;55.50;100142.34;4437308;32;34304;-88
2023/10/02 07:36:15;;;;;;;10.88;3.83;;;;;;;18.54;54.24;100138.75;4437658;32;32609;-88
2023/10/02 07:38:47;;;;;;;15.45;4.62;;;;;;;18.60;55.15;100132.59;4437950;32;33488;-88
2023/10/02 07:41:25;;;;;;;8.65;3.47;;;;;;;18.85;54.34;100138.66;4450520;32;34909;-88
2023/10/02 07:43:54;;;;;;;11.80;4.40;;;;;;;18.78;54.94;100137.81;4441325;32;33964;-87
2023/10/02 07:46:23;;;;;;;13.02;3.65;;;;;;;18.85;53.16;100136.88;4453099;32;33062;-87
2023/10/02 07:48:57;;;;;;;11.25;4.22;;;;;;;18.90;54.14;100139.50;4452616;32;33073;-87
2023/10/02 07:51:37;;;;;;;11.20;3.70;;;;;;;19.25;53.72;100138.41;4439146;32;34002;-88
2023/10/02 07:54:09;;;;;;;10.55;3.75;;;;;;;19.17;55.09;100144.59;4438248;32;33580;-88
2023/10/02 07:56:41;;;;;;;11.65;3.60;;;;;;;19.33;54.94;100148.00;4451512;32;33144;-87
2023/10/02 07:59:09;;;;;;;9.85;3.42;;;;;;;19.52;53.93;100153.13;4459016;32;34948;-88
2023/10/02 08:01:39;;;;;;;10.25;3.87;;;;;;;19.76;52.57;100152.94;4452969;32;34957;-88
2023/10/02 08:04:07;;;;;;;7.87;3.87;;;;;;;19.67;51.51;100148.63;4430582;32;33993;-88
2023/10/02 08:06:36;;;;;;;10.02;4.25;;;;;;;19.92;50.43;100153.66;4459919;32;33895;-88
2023/10/02 08:12:01;;;;;;;14.00;5.30;;;;;;;20.17;50.39;100155.16;4466672;32;33803;-87
2023/10/02 08:14:34;;;;;;;11.48;3.95;;;;;;;20.49;49.06;100153.03;4436435;32;32957;-87
2023/10/02 08:17:27;;;;;;;12.13;4.70;;;;;;;20.48;48.94;100159.22;4463307;32;33404;-86
2023/10/02 08:19:56;;;;;;;11.00;4.35;;;;;;;20.67;48.38;100158.13;4452119;32;32442;-88
2023/10/02 08:22:35;;;;;;;11.75;4.22;;;;;;;20.39;48.66;100150.53;4453683;32;33801;-88
2023/10/02 08:25:13;;;;;;;9.40;3.78;;;;;;;20.67;48.32;100150.22;4466796;32;34556;-89
2023/10/02 08:27:42;;;;;;;11.10;3.75;;;;;;;20.90;48.37;100150.78;4466433;32;34131;-88
2023/10/02 08:30:26;;;;;;;9.43;3.70;;;;;;;21.21;47.45;100142.44;4465635;32;34726;-86
2023/10/02 08:33:05;;;;;;;13.32;4.37;;;;;;;20.99;47.52;100148.94;4465037;32;34146;-85
2023/10/02 08:35:46;;;;;;;12.35;4.22;;;;;;;21.07;47.29;100149.69;4466504;32;34030;-85
2023/10/02 08:38:23;;;;;;;11.32;3.75;;;;;;;20.68;47.51;100151.94;4466340;32;33508;-86
2023/10/02 08:40:58;;;;;;;12.77;3.95;;;;;;;20.83;47.90;100145.59;4466518;32;33941;-87
2023/10/02 08:43:28;;;;;;;14.52;3.90;;;;;;;21.01;48.01;100147.12;4451285;32;34007;-86
2023/10/02 08:45:56;;;;;;;8.48;4.07;;;;;;;21.29;47.91;100143.22;4466388;32;34810;-85
2023/10/02 08:48:25;;;;;;;11.18;3.67;;;;;;;21.16;46.91;100135.50;4466185;32;33460;-87
2023/10/02 08:50:57;;;;;;;10.63;3.65;;;;;;;21.22;47.44;100138.06;4452303;32;34733;-87
2023/10/02 08:53:26;;;;;;;13.18;4.10;;;;;;;21.47;46.36;100141.19;4443272;32;34567;-87
2023/10/02 08:55:59;;;;;;;8.30;3.53;;;;;;;21.55;46.63;100129.59;4450464;32;33903;-87
2023/10/02 08:58:29;;;;;;;12.85;3.75;;;;;;;22.03;44.65;100134.91;4436651;32;32913;-89
2023/10/02 09:03:42;;;;;;;10.85;4.03;;;;;;;22.18;44.03;100138.22;4451434;32;33597;-85
2023/10/02 09:06:28;;;;;;;13.25;4.10;;;;;;;21.95;46.06;100138.63;4452320;32;33588;-87
2023/10/02 09:09:13;;;;;;;15.63;4.70;;;;;;;21.96;46.09;100141.22;4438900;32;33887;-85
2023/10/02 09:11:44;;;;;;;11.68;4.70;;;;;;;21.95;45.67;100142.13;4444002;32;34020;-91
2023/10/02 09:17:07;;;;;;;11.10;4.80;;;;;;;22.32;44.74;100136.19;4468122;32;33570;-86
2023/10/02 09:19:37;;;;;;;16.45;4.82;;;;;;;21.91;44.58;100135.16;4455728;32;33625;-86
2023/10/02 09:22:10;;;;;;;11.80;4.50;;;;;;;22.28;44.30;100129.22;4467956;32;33424;-85
2023/10/02 09:24:40;;;;;;;11.73;4.62;;;;;;;22.09;45.37;100139.25;4454824;32;33943;-86
2023/10/02 09:27:24;;;;;;;9.90;3.65;;;;;;;22.08;44.57;100130.41;4468686;32;33468;-86
2023/10/02 09:32:49;;;;;;;16.27;4.55;;;;;;;22.01;42.69;100120.00;4468223;32;33908;-88
2023/10/02 09:35:29;;;;;;;;;;;;;;;22.37;43.31;100117.59;4468440;32;34407;-86
2023/10/02 09:38:17;;;;;;;9.52;3.55;;;;;;;22.50;42.21;100111.13;4468563;32;34389;-86
2023/10/02 09:41:14;;;;;;;8.52;3.80;;;;;;;22.40;42.16;100117.53;4468343;32;33272;-85
2023/10/02 09:43:44;;;;;;;10.30;4.25;;;;;;;22.45;43.28;100123.59;4457223;32;34650;-86
2023/10/02 09:46:20;;;;;;;9.07;3.58;;;;;;;22.64;41.42;100114.38;4464911;32;33883;-86
2023/10/02 09:49:03;;;;;;;13.50;3.87;;;;;;;22.59;43.80;100116.25;4449612;32;34592;-86
2023/10/02 09:51:45;;;;;;;12.43;4.00;;;;;;;22.57;44.09;100110.09;4441162;32;34120;-85
2023/10/02 09:54:31;;;;;;;10.15;4.57;;;;;;;22.66;43.17;100124.94;4442812;32;34032;-85
2023/10/02 09:57:36;;;;;;;10.75;3.90;;;;;;;22.59;42.49;100124.19;4454085;32;34025;-85
2023/10/02 09:59:57;;;;;;;12.20;4.70;;;;;;;22.25;42.27;100116.94;4466047;32;33728;-85
2023/10/02 10:05:00;;;;;;;10.57;3.40;;;;;;;22.61;42.94;100114.41;4467849;32;33721;-84
2023/10/02 10:07:52;;;;;;;13.95;3.92;;;;;;;22.82;41.74;100116.62;4463522;32;33576;-86
2023/10/02 10:10:28;;;;;;;13.35;4.03;;;;;;;22.88;42.49;100114.72;4466499;32;33552;-85
2023/10/02 10:12:58;;;;;;;11.25;4.03;;;;;;;22.88;41.10;100114.72;4459765;32;33587;-86
2023/10/02 10:15:26;;;;;;;10.10;3.28;;;;;;;22.76;42.16;100106.16;4463603;32;33850;-82
2023/10/02 10:17:56;;;;;;;11.73;3.67;;;;;;;23.01;40.87;100100.38;4443789;32;35002;-83
2023/10/02 10:20:27;;;;;;;9.90;4.18;;;;;;;22.87;41.48;100113.00;4467725;32;33737;-83
2023/10/02 10:22:57;;;;;;;11.98;3.40;;;;;;;23.11;41.54;100101.91;4465914;32;34376;-84
2023/10/02 10:25:32;;;;;;;12.77;3.70;;;;;;;23.11;41.44;100112.47;4467320;32;33698;-87
2023/10/02 10:28:05;;;;;;;9.82;3.45;;;;;;;23.20;40.43;100106.97;4467856;32;33488;-89
2023/10/02 10:30:44;;;;;;;8.38;3.45;;;;;;;23.41;40.13;100105.59;4467461;32;34444;-83
2023/10/02 10:33:20;;;;;;;10.85;3.70;;;;;;;23.47;39.29;100099.25;4467363;32;34438;-83
2023/10/02 10:35:51;;;;;;;9.65;3.50;;;;;;;23.52;39.04;100097.34;4466600;32;34620;-83
2023/10/02 10:38:21;;;;;;;10.32;3.62;;;;;;;23.46;42.04;100092.22;4453699;32;34251;-83
2023/10/02 10:40:59;;;;;;;13.60;4.45;;;;;;;23.63;41.32;100095.28;4467483;32;34064;-86
2023/10/02 10:43:43;;;;;;;9.30;3.50;;;;;;;23.40;40.90;100092.38;4460754;32;34310;-85
2023/10/02 10:46:16;;;;;;;12.65;4.07;;;;;;;23.60;41.24;100079.50;4451931;32;34123;-85
2023/10/02 10:48:48;;;;;;;11.12;3.55;;;;;;;23.79;39.43;100087.87;4451820;32;34118;-85
2023/10/02 10:51:22;;;;;;;13.35;4.07;;;;;;;23.75;40.43;100084.44;4452088;32;33552;-84
2023/10/02 10:53:54;;;;;;;11.07;4.03;;;;;;;23.91;38.93;100073.44;4452013;32;33346;-85
2023/10/02 10:56:23;;;;;;;9.32;3.60;;;;;;;23.65;39.68;100068.78;4452064;32;34554;-85
2023/10/02 10:59:10;;;;;;;11.12;3.95;;;;;;;23.78;40.39;100072.88;4451841;32;35053;-87
2023/10/02 11:04:47;;;;;;;10.13;3.62;;;;;;;24.15;39.11;100064.78;4455435;32;34357;-85
2023/10/02 11:07:25;;;;;;;16.65;3.75;;;;;;;24.01;39.89;100059.88;4467710;32;33996;-85
2023/10/02 11:10:14;;;;;;;11.12;3.35;;;;;;;24.02;40.52;100066.91;4467282;32;33809;-85
2023/10/02 11:12:55;;;;;;;9.95;3.75;;;;;;;24.06;40.65;100059.75;4467384;32;34219;-84
2023/10/02 11:18:20;;;;;;;10.15;3.30;;;;;;;24.32;38.51;100052.81;4455276;32;33731;-85
2023/10/02 11:20:57;;;;;;;12.27;3.65;;;;;;;24.30;38.73;100052.00;4467274;32;35100;-84
2023/10/02 11:23:38;;;;;;;11.52;3.72;;;;;;;24.32;40.59;100053.72;4467306;32;34379;-85
2023/10/02 11:26:13;;;;;;;9.48;3.33;;;;;;;24.22;39.75;100053.09;4453576;32;33115;-86
2023/10/02 11:28:44;;;;;;;11.15;4.47;;;;;;;24.39;38.29;100042.03;4466700;32;33485;-86
2023/10/02 11:31:35;;;;;;;12.20;3.90;;;;;;;23.73;38.78;100033.28;4467197;32;34141;-85
2023/10/02 11:34:08;;;;;;;12.50;4.12;;;;;;;24.17;38.99;100047.06;4454208;32;33873;-85
2023/10/02 11:36:55;;;;;;;9.98;3.50;;;;;;;24.03;37.98;100046.59;4467035;32;33343;-84
2023/10/02 11:39:29;;;;;;;9.60;3.83;;;;;;;24.44;37.86;100044.56;4458207;32;34034;-86
2023/10/02 11:41:59;;;;;;;10.23;3.45;;;;;;;24.26;37.63;100044.16;4451650;32;34688;-84
2023/10/02 11:44:27;;;;;;;10.50;3.53;;;;;;;24.52;38.23;100045.19;4451630;32;33685;-85
2023/10/02 11:46:55;;;;;;;9.60;3.42;;;;;;;24.37;37.48;100029.72;4451654;32;33161;-84
2023/10/02 11:49:23;;;;;;;11.35;3.83;;;;;;;24.18;38.25;100035.56;4451237;32;34642;-85
2023/10/02 11:51:51;;;;;;;10.00;3.78;;;;;;;23.73;39.10;100033.28;4452147;32;35030;-86
2023/10/02 11:54:18;;;;;;;14.05;3.85;;;;;;;24.00;39.67;100030.78;4455293;32;34611;-85
2023/10/02 11:56:47;;;;;;;9.75;3.53;;;;;;;24.10;38.92;100024.31;4456240;32;33586;-86
2023/10/02 11:59:14;;;;;;;7.53;3.55;;;;;;;24.37;38.85;100019.97;4451555;32;34377;-84
2023/10/02 12:01:47;;;;;;;6.85;3.10;;;;;;;24.72;37.45;100000.34;4466909;32;34006;-86
2023/10/02 12:04:15;;;;;;;22.42;3.58;;;;;;;24.28;38.32;100014.94;4467092;32;33460;-86
2023/10/02 12:06:43;;;;;;;9.48;3.17;;;;;;;24.59;38.24;100003.47;4467328;32;33132;-86
2023/10/02 12:09:17;;;;;;;7.72;2.85;;;;;;;24.73;38.93;100010.03;4453090;32;33389;-84
2023/10/02 12:11:46;;;;;;;8.15;3.87;;;;;;;24.63;38.82;100005.97;4454765;32;34068;-85
2023/10/02 12:14:13;;;;;;;8.50;3.20;;;;;;;24.91;38.07;100005.06;4466696;32;34168;-84
2023/10/02 12:16:41;;;;;;;11.27;3.53;;;;;;;24.28;38.56;100010.53;4466541;32;33417;-85
2023/10/02 12:19:10;;;;;;;8.05;3.45;;;;;;;24.65;38.70;100004.09;4466605;32;33974;-85
2023/10/02 12:21:39;;;;;;;7.68;3.00;;;;;;;24.47;38.59;99999.38;4466649;32;34310;-85
2023/10/02 12:24:19;;;;;;;8.82;2.90;;;;;;;24.04;38.84;100000.63;4466331;32;33633;-85
2023/10/02 12:26:46;;;;;;;9.70;3.62;;;;;;;24.46;39.86;99998.50;4452393;32;32999;-86
2023/10/02 12:29:15;;;;;;;7.65;2.85;;;;;;;24.32;37.96;99989.22;4465693;32;34785;-85
2023/10/02 12:31:43;;;;;;;6.40;2.58;;;;;;;24.47;38.42;99994.06;4446816;32;35395;-84
2023/10/02 12:34:13;;;;;;;8.15;2.90;;;;;;;24.46;39.65;99987.03;4461960;32;33761;-85
2023/10/02 12:36:41;;;;;;;10.07;3.20;;;;;;;24.54;40.08;99990.31;4465321;32;34370;-86
2023/10/02 12:39:12;;;;;;;8.70;3.10;;;;;;;24.39;37.80;99985.50;4438176;32;33882;-87
2023/10/02 12:41:44;;;;;;;8.00;2.90;;;;;;;24.53;38.90;99975.34;4439293;32;34296;-85
2023/10/02 12:44:13;;;;;;;8.55;2.67;;;;;;;24.54;39.17;99974.41;4439237;32;34042;-84
2023/10/02 12:46:43;;;;;;;18.80;4.53;;;;;;;24.56;40.17;99982.34;4452738;32;33129;-85
2023/10/02 12:49:15;;;;;;;9.73;3.15;;;;;;;24.33;39.16;99983.03;4456086;32;34424;-85
2023/10/02 12:51:43;;;;;;;8.70;3.08;;;;;;;24.51;38.81;99979.84;4468321;32;34665;-86
2023/10/02 12:54:11;;;;;;;8.18;3.30;;;;;;;24.54;39.07;99974.41;4468418;32;33849;-85
2023/10/02 12:56:39;;;;;;;10.43;3.22;;;;;;;24.68;38.63;99966.91;4468222;32;33472;-85
2023/10/02 12:59:13;;;;;;;9.18;2.78;;;;;;;24.78;38.01;99958.66;4468075;32;33155;-85